sensor_id;sensor_type;location;lat;lon;timestamp;P1;durP1;ratioP1;P2;durP2;ratioP2
82244;SDS011;71849;50.096;14.458;2023-08-20T00:00:37;12.43;;;8.13;;
82244;SDS011;71849;50.096;14.458;2023-08-20T00:03:03;12.07;;;7.57;;
82244;SDS011;71849;50.096;14.458;2023-08-20T00:05:35;11.68;;;8.02;;
82244;SDS011;71849;50.096;14.458;2023-08-20T00:08:01;10.48;;;7.60;;
82244;SDS011;71849;50.096;14.458;2023-08-20T00:10:29;12.45;;;7.72;;
82244;SDS011;71849;50.096;14.458;2023-08-20T00:15:28;9.83;;;7.20;;
82244;SDS011;71849;50.096;14.458;2023-08-20T00:17:54;11.13;;;7.70;;
82244;SDS011;71849;50.096;14.458;2023-08-20T00:20:25;12.60;;;8.00;;
82244;SDS011;71849;50.096;14.458;2023-08-20T00:22:51;13.13;;;8.20;;
82244;SDS011;71849;50.096;14.458;2023-08-20T00:25:19;13.35;;;8.50;;
82244;SDS011;71849;50.096;14.458;2023-08-20T00:27:48;12.10;;;8.40;;
82244;SDS011;71849;50.096;14.458;2023-08-20T00:30:16;11.75;;;8.05;;
82244;SDS011;71849;50.096;14.458;2023-08-20T00:32:44;12.50;;;7.28;;
82244;SDS011;71849;50.096;14.458;2023-08-20T00:35:10;11.43;;;8.05;;
82244;SDS011;71849;50.096;14.458;2023-08-20T00:37:35;14.65;;;8.75;;
82244;SDS011;71849;50.096;14.458;2023-08-20T00:40:04;12.60;;;8.52;;
82244;SDS011;71849;50.096;14.458;2023-08-20T00:42:30;13.10;;;8.30;;
82244;SDS011;71849;50.096;14.458;2023-08-20T00:44:59;11.93;;;8.20;;
82244;SDS011;71849;50.096;14.458;2023-08-20T00:47:24;11.20;;;8.07;;
82244;SDS011;71849;50.096;14.458;2023-08-20T00:49:53;10.73;;;7.88;;
82244;SDS011;71849;50.096;14.458;2023-08-20T00:52:19;11.02;;;8.30;;
82244;SDS011;71849;50.096;14.458;2023-08-20T00:54:45;12.38;;;8.35;;
82244;SDS011;71849;50.096;14.458;2023-08-20T00:57:17;10.90;;;8.07;;
82244;SDS011;71849;50.096;14.458;2023-08-20T00:59:44;13.52;;;8.68;;
82244;SDS011;71849;50.096;14.458;2023-08-20T01:02:13;13.85;;;8.38;;
82244;SDS011;71849;50.096;14.458;2023-08-20T01:04:39;14.57;;;8.40;;
82244;SDS011;71849;50.096;14.458;2023-08-20T01:10:21;11.48;;;8.48;;
82244;SDS011;71849;50.096;14.458;2023-08-20T01:12:48;13.82;;;8.82;;
82244;SDS011;71849;50.096;14.458;2023-08-20T01:15:17;13.80;;;8.70;;
82244;SDS011;71849;50.096;14.458;2023-08-20T01:17:43;11.63;;;8.27;;
82244;SDS011;71849;50.096;14.458;2023-08-20T01:20:17;13.60;;;8.50;;
82244;SDS011;71849;50.096;14.458;2023-08-20T01:28:32;12.40;;;8.57;;
82244;SDS011;71849;50.096;14.458;2023-08-20T01:31:03;12.02;;;8.60;;
82244;SDS011;71849;50.096;14.458;2023-08-20T01:33:31;14.13;;;9.13;;
82244;SDS011;71849;50.096;14.458;2023-08-20T01:35:56;14.05;;;8.80;;
82244;SDS011;71849;50.096;14.458;2023-08-20T01:38:22;12.63;;;8.38;;
82244;SDS011;71849;50.096;14.458;2023-08-20T01:40:57;12.93;;;8.65;;
82244;SDS011;71849;50.096;14.458;2023-08-20T01:43:25;11.13;;;8.57;;
82244;SDS011;71849;50.096;14.458;2023-08-20T01:45:50;12.70;;;8.80;;
82244;SDS011;71849;50.096;14.458;2023-08-20T01:48:16;12.93;;;8.85;;
82244;SDS011;71849;50.096;14.458;2023-08-20T01:50:41;12.60;;;9.10;;
82244;SDS011;71849;50.096;14.458;2023-08-20T01:53:07;13.90;;;9.10;;
82244;SDS011;71849;50.096;14.458;2023-08-20T01:55:32;12.73;;;9.18;;
82244;SDS011;71849;50.096;14.458;2023-08-20T01:57:57;13.48;;;9.52;;
82244;SDS011;71849;50.096;14.458;2023-08-20T02:00:23;14.88;;;9.60;;
82244;SDS011;71849;50.096;14.458;2023-08-20T02:02:52;12.88;;;9.50;;
82244;SDS011;71849;50.096;14.458;2023-08-20T02:05:17;15.32;;;10.20;;
82244;SDS011;71849;50.096;14.458;2023-08-20T02:07:43;12.25;;;8.52;;
82244;SDS011;71849;50.096;14.458;2023-08-20T02:10:08;14.68;;;9.27;;
82244;SDS011;71849;50.096;14.458;2023-08-20T02:12:34;11.90;;;8.60;;
82244;SDS011;71849;50.096;14.458;2023-08-20T02:15:02;12.77;;;9.20;;
82244;SDS011;71849;50.096;14.458;2023-08-20T02:17:29;16.58;;;9.63;;
82244;SDS011;71849;50.096;14.458;2023-08-20T02:19:54;13.43;;;9.20;;
82244;SDS011;71849;50.096;14.458;2023-08-20T02:22:22;14.52;;;9.88;;
82244;SDS011;71849;50.096;14.458;2023-08-20T02:24:48;13.52;;;9.05;;
82244;SDS011;71849;50.096;14.458;2023-08-20T02:27:13;13.07;;;8.90;;
82244;SDS011;71849;50.096;14.458;2023-08-20T02:29:42;12.77;;;8.73;;
82244;SDS011;71849;50.096;14.458;2023-08-20T02:32:07;13.45;;;9.73;;
82244;SDS011;71849;50.096;14.458;2023-08-20T02:34:33;15.60;;;9.23;;
82244;SDS011;71849;50.096;14.458;2023-08-20T02:36:58;13.88;;;9.60;;
82244;SDS011;71849;50.096;14.458;2023-08-20T02:39:24;13.00;;;9.38;;
82244;SDS011;71849;50.096;14.458;2023-08-20T02:41:50;14.88;;;9.25;;
82244;SDS011;71849;50.096;14.458;2023-08-20T02:44:22;13.50;;;9.50;;
82244;SDS011;71849;50.096;14.458;2023-08-20T02:46:49;12.82;;;9.13;;
82244;SDS011;71849;50.096;14.458;2023-08-20T02:49:14;16.23;;;11.07;;
82244;SDS011;71849;50.096;14.458;2023-08-20T02:51:40;16.25;;;10.27;;
82244;SDS011;71849;50.096;14.458;2023-08-20T02:54:06;18.38;;;11.57;;
82244;SDS011;71849;50.096;14.458;2023-08-20T02:56:32;15.25;;;10.73;;
82244;SDS011;71849;50.096;14.458;2023-08-20T02:58:57;14.70;;;11.18;;
82244;SDS011;71849;50.096;14.458;2023-08-20T03:01:23;13.73;;;10.23;;
82244;SDS011;71849;50.096;14.458;2023-08-20T03:03:50;15.68;;;11.02;;
82244;SDS011;71849;50.096;14.458;2023-08-20T03:06:16;15.82;;;10.15;;
82244;SDS011;71849;50.096;14.458;2023-08-20T03:08:41;17.70;;;11.38;;
82244;SDS011;71849;50.096;14.458;2023-08-20T03:11:07;14.38;;;10.25;;
82244;SDS011;71849;50.096;14.458;2023-08-20T03:13:32;19.55;;;11.60;;
82244;SDS011;71849;50.096;14.458;2023-08-20T03:15:58;14.57;;;10.35;;
82244;SDS011;71849;50.096;14.458;2023-08-20T03:18:23;17.58;;;11.77;;
82244;SDS011;71849;50.096;14.458;2023-08-20T03:20:49;17.38;;;12.82;;
82244;SDS011;71849;50.096;14.458;2023-08-20T03:23:14;15.43;;;11.77;;
82244;SDS011;71849;50.096;14.458;2023-08-20T03:25:40;17.40;;;11.95;;
82244;SDS011;71849;50.096;14.458;2023-08-20T03:28:05;16.70;;;11.48;;
82244;SDS011;71849;50.096;14.458;2023-08-20T03:30:30;17.23;;;11.13;;
82244;SDS011;71849;50.096;14.458;2023-08-20T03:32:56;13.38;;;10.63;;
82244;SDS011;71849;50.096;14.458;2023-08-20T03:35:22;14.93;;;10.23;;
82244;SDS011;71849;50.096;14.458;2023-08-20T03:37:47;15.10;;;10.57;;
82244;SDS011;71849;50.096;14.458;2023-08-20T03:40:19;18.00;;;11.23;;
82244;SDS011;71849;50.096;14.458;2023-08-20T03:42:44;16.67;;;11.35;;
82244;SDS011;71849;50.096;14.458;2023-08-20T03:45:10;15.32;;;12.27;;
82244;SDS011;71849;50.096;14.458;2023-08-20T03:47:35;15.75;;;11.40;;
82244;SDS011;71849;50.096;14.458;2023-08-20T03:50:02;16.08;;;11.45;;
82244;SDS011;71849;50.096;14.458;2023-08-20T03:52:27;15.38;;;10.93;;
82244;SDS011;71849;50.096;14.458;2023-08-20T03:54:53;16.23;;;12.47;;
82244;SDS011;71849;50.096;14.458;2023-08-20T03:57:18;16.55;;;12.00;;
82244;SDS011;71849;50.096;14.458;2023-08-20T03:59:44;16.08;;;11.68;;
82244;SDS011;71849;50.096;14.458;2023-08-20T04:02:10;14.10;;;10.63;;
82244;SDS011;71849;50.096;14.458;2023-08-20T04:04:36;18.02;;;11.32;;
82244;SDS011;71849;50.096;14.458;2023-08-20T04:07:02;14.27;;;10.25;;
82244;SDS011;71849;50.096;14.458;2023-08-20T04:09:27;16.80;;;11.38;;
82244;SDS011;71849;50.096;14.458;2023-08-20T04:11:53;15.13;;;11.05;;
82244;SDS011;71849;50.096;14.458;2023-08-20T04:14:18;14.32;;;11.05;;
82244;SDS011;71849;50.096;14.458;2023-08-20T04:16:44;14.68;;;10.98;;
82244;SDS011;71849;50.096;14.458;2023-08-20T04:19:09;16.77;;;11.73;;
82244;SDS011;71849;50.096;14.458;2023-08-20T04:21:35;17.15;;;12.02;;
82244;SDS011;71849;50.096;14.458;2023-08-20T04:24:00;15.30;;;11.10;;
82244;SDS011;71849;50.096;14.458;2023-08-20T04:26:25;16.83;;;10.57;;
82244;SDS011;71849;50.096;14.458;2023-08-20T04:28:51;13.85;;;10.15;;
82244;SDS011;71849;50.096;14.458;2023-08-20T04:31:16;14.27;;;10.25;;
82244;SDS011;71849;50.096;14.458;2023-08-20T04:33:42;17.88;;;11.13;;
82244;SDS011;71849;50.096;14.458;2023-08-20T04:36:12;17.27;;;12.63;;
82244;SDS011;71849;50.096;14.458;2023-08-20T04:38:43;15.13;;;11.38;;
82244;SDS011;71849;50.096;14.458;2023-08-20T04:41:11;18.38;;;13.55;;
82244;SDS011;71849;50.096;14.458;2023-08-20T04:43:38;18.27;;;13.27;;
82244;SDS011;71849;50.096;14.458;2023-08-20T04:46:03;17.30;;;11.55;;
82244;SDS011;71849;50.096;14.458;2023-08-20T04:48:29;15.65;;;11.65;;
82244;SDS011;71849;50.096;14.458;2023-08-20T04:50:54;16.98;;;11.15;;
82244;SDS011;71849;50.096;14.458;2023-08-20T04:53:20;15.55;;;11.25;;
82244;SDS011;71849;50.096;14.458;2023-08-20T04:55:45;14.85;;;10.63;;
82244;SDS011;71849;50.096;14.458;2023-08-20T04:58:10;14.82;;;10.35;;
82244;SDS011;71849;50.096;14.458;2023-08-20T05:00:36;14.35;;;10.85;;
82244;SDS011;71849;50.096;14.458;2023-08-20T05:03:01;15.60;;;10.32;;
82244;SDS011;71849;50.096;14.458;2023-08-20T05:05:27;12.98;;;10.23;;
82244;SDS011;71849;50.096;14.458;2023-08-20T05:07:52;15.20;;;10.30;;
82244;SDS011;71849;50.096;14.458;2023-08-20T05:10:20;13.57;;;10.10;;
82244;SDS011;71849;50.096;14.458;2023-08-20T05:12:46;13.40;;;9.40;;
82244;SDS011;71849;50.096;14.458;2023-08-20T05:15:11;15.57;;;10.75;;
82244;SDS011;71849;50.096;14.458;2023-08-20T05:17:37;15.05;;;10.65;;
82244;SDS011;71849;50.096;14.458;2023-08-20T05:20:03;13.35;;;10.18;;
82244;SDS011;71849;50.096;14.458;2023-08-20T05:22:28;13.30;;;9.38;;
82244;SDS011;71849;50.096;14.458;2023-08-20T05:24:54;16.00;;;9.55;;
82244;SDS011;71849;50.096;14.458;2023-08-20T05:27:22;16.23;;;9.35;;
82244;SDS011;71849;50.096;14.458;2023-08-20T05:29:47;13.18;;;9.05;;
82244;SDS011;71849;50.096;14.458;2023-08-20T05:32:12;12.75;;;8.23;;
82244;SDS011;71849;50.096;14.458;2023-08-20T05:34:39;17.92;;;13.77;;
82244;SDS011;71849;50.096;14.458;2023-08-20T05:37:10;14.60;;;10.05;;
82244;SDS011;71849;50.096;14.458;2023-08-20T05:39:37;11.95;;;8.10;;
82244;SDS011;71849;50.096;14.458;2023-08-20T05:42:06;15.93;;;8.93;;
82244;SDS011;71849;50.096;14.458;2023-08-20T05:44:31;11.70;;;8.90;;
82244;SDS011;71849;50.096;14.458;2023-08-20T05:46:57;15.60;;;8.63;;
82244;SDS011;71849;50.096;14.458;2023-08-20T05:49:22;13.90;;;8.90;;
82244;SDS011;71849;50.096;14.458;2023-08-20T05:51:47;13.65;;;8.95;;
82244;SDS011;71849;50.096;14.458;2023-08-20T05:54:13;13.07;;;8.65;;
82244;SDS011;71849;50.096;14.458;2023-08-20T05:56:38;12.73;;;9.10;;
82244;SDS011;71849;50.096;14.458;2023-08-20T05:59:06;15.35;;;9.13;;
82244;SDS011;71849;50.096;14.458;2023-08-20T06:01:37;14.88;;;9.05;;
82244;SDS011;71849;50.096;14.458;2023-08-20T06:04:06;11.20;;;7.90;;
82244;SDS011;71849;50.096;14.458;2023-08-20T06:06:31;13.27;;;8.77;;
82244;SDS011;71849;50.096;14.458;2023-08-20T06:08:56;15.38;;;8.90;;
82244;SDS011;71849;50.096;14.458;2023-08-20T06:11:23;13.30;;;8.85;;
82244;SDS011;71849;50.096;14.458;2023-08-20T06:13:48;13.38;;;9.18;;
82244;SDS011;71849;50.096;14.458;2023-08-20T06:16:14;12.70;;;9.23;;
82244;SDS011;71849;50.096;14.458;2023-08-20T06:18:42;15.20;;;9.00;;
82244;SDS011;71849;50.096;14.458;2023-08-20T06:21:29;11.57;;;8.80;;
82244;SDS011;71849;50.096;14.458;2023-08-20T06:24:02;13.70;;;9.40;;
82244;SDS011;71849;50.096;14.458;2023-08-20T06:26:28;14.10;;;9.52;;
82244;SDS011;71849;50.096;14.458;2023-08-20T06:28:54;16.80;;;9.77;;
82244;SDS011;71849;50.096;14.458;2023-08-20T06:31:28;13.55;;;9.18;;
82244;SDS011;71849;50.096;14.458;2023-08-20T06:33:53;13.93;;;10.00;;
82244;SDS011;71849;50.096;14.458;2023-08-20T06:36:19;15.60;;;9.77;;
82244;SDS011;71849;50.096;14.458;2023-08-20T06:38:44;13.90;;;9.60;;
82244;SDS011;71849;50.096;14.458;2023-08-20T06:41:13;12.60;;;9.25;;
82244;SDS011;71849;50.096;14.458;2023-08-20T06:43:43;13.77;;;9.10;;
82244;SDS011;71849;50.096;14.458;2023-08-20T06:46:12;12.43;;;9.20;;
82244;SDS011;71849;50.096;14.458;2023-08-20T06:48:37;13.95;;;10.10;;
82244;SDS011;71849;50.096;14.458;2023-08-20T06:51:15;14.80;;;9.77;;
82244;SDS011;71849;50.096;14.458;2023-08-20T06:53:47;12.55;;;9.18;;
82244;SDS011;71849;50.096;14.458;2023-08-20T06:56:18;13.70;;;9.18;;
82244;SDS011;71849;50.096;14.458;2023-08-20T06:58:53;13.50;;;9.68;;
82244;SDS011;71849;50.096;14.458;2023-08-20T07:01:31;14.40;;;10.07;;
82244;SDS011;71849;50.096;14.458;2023-08-20T07:03:56;13.85;;;9.63;;
82244;SDS011;71849;50.096;14.458;2023-08-20T07:06:25;13.82;;;9.77;;
82244;SDS011;71849;50.096;14.458;2023-08-20T07:08:50;13.15;;;9.88;;
82244;SDS011;71849;50.096;14.458;2023-08-20T07:11:16;14.48;;;9.88;;
82244;SDS011;71849;50.096;14.458;2023-08-20T07:16:31;15.52;;;9.52;;
82244;SDS011;71849;50.096;14.458;2023-08-20T07:19:12;16.50;;;11.13;;
82244;SDS011;71849;50.096;14.458;2023-08-20T07:24:09;14.57;;;10.13;;
82244;SDS011;71849;50.096;14.458;2023-08-20T07:26:35;13.15;;;9.27;;
82244;SDS011;71849;50.096;14.458;2023-08-20T07:29:00;14.38;;;9.38;;
82244;SDS011;71849;50.096;14.458;2023-08-20T07:31:33;15.20;;;10.48;;
82244;SDS011;71849;50.096;14.458;2023-08-20T07:34:02;16.60;;;11.02;;
82244;SDS011;71849;50.096;14.458;2023-08-20T07:36:28;15.10;;;10.77;;
82244;SDS011;71849;50.096;14.458;2023-08-20T07:38:53;15.00;;;11.23;;
82244;SDS011;71849;50.096;14.458;2023-08-20T07:41:19;15.43;;;10.65;;
82244;SDS011;71849;50.096;14.458;2023-08-20T07:44:03;14.32;;;10.05;;
82244;SDS011;71849;50.096;14.458;2023-08-20T07:46:32;15.20;;;10.55;;
82244;SDS011;71849;50.096;14.458;2023-08-20T07:48:58;14.70;;;11.35;;
82244;SDS011;71849;50.096;14.458;2023-08-20T07:51:29;17.08;;;11.50;;
82244;SDS011;71849;50.096;14.458;2023-08-20T07:53:58;22.33;;;13.65;;
82244;SDS011;71849;50.096;14.458;2023-08-20T07:56:29;18.55;;;11.77;;
82244;SDS011;71849;50.096;14.458;2023-08-20T07:58:54;15.55;;;11.57;;
82244;SDS011;71849;50.096;14.458;2023-08-20T08:01:23;17.77;;;11.30;;
82244;SDS011;71849;50.096;14.458;2023-08-20T08:03:48;17.45;;;11.27;;
82244;SDS011;71849;50.096;14.458;2023-08-20T08:06:15;20.52;;;12.88;;
82244;SDS011;71849;50.096;14.458;2023-08-20T08:08:42;16.05;;;11.45;;
82244;SDS011;71849;50.096;14.458;2023-08-20T08:11:10;16.05;;;11.90;;
82244;SDS011;71849;50.096;14.458;2023-08-20T08:13:36;17.98;;;12.68;;
82244;SDS011;71849;50.096;14.458;2023-08-20T08:16:02;16.75;;;12.43;;
82244;SDS011;71849;50.096;14.458;2023-08-20T08:18:28;16.95;;;12.18;;
82244;SDS011;71849;50.096;14.458;2023-08-20T08:20:56;21.35;;;11.98;;
82244;SDS011;71849;50.096;14.458;2023-08-20T08:23:28;16.67;;;11.60;;
82244;SDS011;71849;50.096;14.458;2023-08-20T08:26:00;15.65;;;12.48;;
82244;SDS011;71849;50.096;14.458;2023-08-20T08:28:25;19.60;;;15.88;;
82244;SDS011;71849;50.096;14.458;2023-08-20T08:31:00;18.60;;;12.75;;
82244;SDS011;71849;50.096;14.458;2023-08-20T08:33:34;17.98;;;12.00;;
82244;SDS011;71849;50.096;14.458;2023-08-20T08:35:59;19.05;;;12.20;;
82244;SDS011;71849;50.096;14.458;2023-08-20T08:38:27;16.58;;;12.23;;
82244;SDS011;71849;50.096;14.458;2023-08-20T08:40:55;19.23;;;13.85;;
82244;SDS011;71849;50.096;14.458;2023-08-20T08:43:20;16.25;;;12.27;;
82244;SDS011;71849;50.096;14.458;2023-08-20T08:45:49;16.55;;;12.13;;
82244;SDS011;71849;50.096;14.458;2023-08-20T08:48:18;20.58;;;12.93;;
82244;SDS011;71849;50.096;14.458;2023-08-20T08:50:46;16.80;;;12.30;;
82244;SDS011;71849;50.096;14.458;2023-08-20T08:53:11;17.50;;;13.23;;
82244;SDS011;71849;50.096;14.458;2023-08-20T08:55:38;19.52;;;12.80;;
82244;SDS011;71849;50.096;14.458;2023-08-20T08:58:03;15.63;;;12.32;;
82244;SDS011;71849;50.096;14.458;2023-08-20T09:00:29;16.67;;;11.75;;
82244;SDS011;71849;50.096;14.458;2023-08-20T09:02:56;22.13;;;13.68;;
82244;SDS011;71849;50.096;14.458;2023-08-20T09:05:27;16.90;;;13.25;;
82244;SDS011;71849;50.096;14.458;2023-08-20T09:07:56;17.67;;;13.15;;
82244;SDS011;71849;50.096;14.458;2023-08-20T09:10:27;17.52;;;12.05;;
82244;SDS011;71849;50.096;14.458;2023-08-20T09:12:54;16.15;;;12.27;;
82244;SDS011;71849;50.096;14.458;2023-08-20T09:15:21;17.92;;;13.30;;
82244;SDS011;71849;50.096;14.458;2023-08-20T09:18:00;18.85;;;13.80;;
82244;SDS011;71849;50.096;14.458;2023-08-20T09:20:36;18.02;;;13.00;;
82244;SDS011;71849;50.096;14.458;2023-08-20T09:23:10;18.67;;;12.55;;
82244;SDS011;71849;50.096;14.458;2023-08-20T09:25:39;17.80;;;13.63;;
82244;SDS011;71849;50.096;14.458;2023-08-20T09:28:05;19.15;;;13.77;;
82244;SDS011;71849;50.096;14.458;2023-08-20T09:30:30;16.83;;;12.50;;
82244;SDS011;71849;50.096;14.458;2023-08-20T09:33:11;18.45;;;13.43;;
82244;SDS011;71849;50.096;14.458;2023-08-20T09:35:48;16.30;;;12.02;;
82244;SDS011;71849;50.096;14.458;2023-08-20T09:38:14;16.98;;;12.32;;
82244;SDS011;71849;50.096;14.458;2023-08-20T09:40:41;16.63;;;12.20;;
82244;SDS011;71849;50.096;14.458;2023-08-20T09:43:06;17.85;;;12.10;;
82244;SDS011;71849;50.096;14.458;2023-08-20T09:45:37;16.13;;;11.38;;
82244;SDS011;71849;50.096;14.458;2023-08-20T09:48:04;17.02;;;12.63;;
82244;SDS011;71849;50.096;14.458;2023-08-20T09:50:34;17.88;;;12.18;;
82244;SDS011;71849;50.096;14.458;2023-08-20T09:56:27;15.50;;;11.43;;
82244;SDS011;71849;50.096;14.458;2023-08-20T09:58:57;15.65;;;11.88;;
82244;SDS011;71849;50.096;14.458;2023-08-20T10:01:23;19.35;;;13.55;;
82244;SDS011;71849;50.096;14.458;2023-08-20T10:03:50;18.70;;;13.52;;
82244;SDS011;71849;50.096;14.458;2023-08-20T10:06:16;15.55;;;11.57;;
82244;SDS011;71849;50.096;14.458;2023-08-20T10:08:52;18.05;;;11.48;;
82244;SDS011;71849;50.096;14.458;2023-08-20T10:11:21;15.45;;;11.18;;
82244;SDS011;71849;50.096;14.458;2023-08-20T10:13:50;15.35;;;11.38;;
82244;SDS011;71849;50.096;14.458;2023-08-20T10:16:18;15.95;;;10.80;;
82244;SDS011;71849;50.096;14.458;2023-08-20T10:18:49;13.70;;;10.65;;
82244;SDS011;71849;50.096;14.458;2023-08-20T10:21:15;12.95;;;10.00;;
82244;SDS011;71849;50.096;14.458;2023-08-20T10:23:48;15.35;;;9.43;;
82244;SDS011;71849;50.096;14.458;2023-08-20T10:26:17;14.50;;;10.27;;
82244;SDS011;71849;50.096;14.458;2023-08-20T10:28:47;12.70;;;8.98;;
82244;SDS011;71849;50.096;14.458;2023-08-20T10:31:47;11.70;;;8.82;;
82244;SDS011;71849;50.096;14.458;2023-08-20T10:34:31;12.07;;;8.25;;
82244;SDS011;71849;50.096;14.458;2023-08-20T10:37:01;10.25;;;8.15;;
82244;SDS011;71849;50.096;14.458;2023-08-20T10:39:28;11.68;;;8.23;;
82244;SDS011;71849;50.096;14.458;2023-08-20T10:42:10;11.90;;;8.73;;
82244;SDS011;71849;50.096;14.458;2023-08-20T10:45:06;13.68;;;9.63;;
82244;SDS011;71849;50.096;14.458;2023-08-20T10:50:10;12.25;;;8.60;;
82244;SDS011;71849;50.096;14.458;2023-08-20T10:52:40;13.50;;;8.90;;
82244;SDS011;71849;50.096;14.458;2023-08-20T10:55:09;12.02;;;8.40;;
82244;SDS011;71849;50.096;14.458;2023-08-20T10:57:38;11.80;;;8.25;;
82244;SDS011;71849;50.096;14.458;2023-08-20T11:00:04;12.57;;;7.85;;
82244;SDS011;71849;50.096;14.458;2023-08-20T11:02:42;10.90;;;7.47;;
82244;SDS011;71849;50.096;14.458;2023-08-20T11:05:18;9.70;;;7.45;;
82244;SDS011;71849;50.096;14.458;2023-08-20T11:07:46;14.90;;;9.23;;
82244;SDS011;71849;50.096;14.458;2023-08-20T11:10:16;10.80;;;7.22;;
82244;SDS011;71849;50.096;14.458;2023-08-20T11:12:45;10.85;;;8.00;;
82244;SDS011;71849;50.096;14.458;2023-08-20T11:15:14;10.95;;;8.15;;
82244;SDS011;71849;50.096;14.458;2023-08-20T11:17:43;8.93;;;7.32;;
82244;SDS011;71849;50.096;14.458;2023-08-20T11:20:10;11.30;;;7.68;;
82244;SDS011;71849;50.096;14.458;2023-08-20T11:22:39;11.57;;;7.88;;
82244;SDS011;71849;50.096;14.458;2023-08-20T11:25:05;11.52;;;7.32;;
82244;SDS011;71849;50.096;14.458;2023-08-20T11:27:36;12.82;;;7.68;;
82244;SDS011;71849;50.096;14.458;2023-08-20T11:30:03;11.77;;;7.93;;
82244;SDS011;71849;50.096;14.458;2023-08-20T11:32:30;10.02;;;7.45;;
82244;SDS011;71849;50.096;14.458;2023-08-20T11:34:56;10.60;;;7.35;;
82244;SDS011;71849;50.096;14.458;2023-08-20T11:37:21;10.10;;;7.45;;
82244;SDS011;71849;50.096;14.458;2023-08-20T11:39:50;12.30;;;7.82;;
82244;SDS011;71849;50.096;14.458;2023-08-20T11:42:19;10.88;;;7.30;;
82244;SDS011;71849;50.096;14.458;2023-08-20T11:44:46;9.63;;;7.55;;
82244;SDS011;71849;50.096;14.458;2023-08-20T11:47:15;12.00;;;8.02;;
82244;SDS011;71849;50.096;14.458;2023-08-20T11:49:42;10.43;;;7.72;;
82244;SDS011;71849;50.096;14.458;2023-08-20T11:52:11;11.73;;;7.55;;
82244;SDS011;71849;50.096;14.458;2023-08-20T11:57:38;10.60;;;7.88;;
82244;SDS011;71849;50.096;14.458;2023-08-20T12:00:23;10.13;;;7.65;;
82244;SDS011;71849;50.096;14.458;2023-08-20T12:02:52;10.20;;;7.07;;
82244;SDS011;71849;50.096;14.458;2023-08-20T12:05:27;11.90;;;7.85;;
82244;SDS011;71849;50.096;14.458;2023-08-20T12:08:03;10.35;;;7.47;;
82244;SDS011;71849;50.096;14.458;2023-08-20T12:10:30;11.43;;;7.63;;
82244;SDS011;71849;50.096;14.458;2023-08-20T12:12:59;11.63;;;8.02;;
82244;SDS011;71849;50.096;14.458;2023-08-20T12:15:24;11.02;;;8.50;;
82244;SDS011;71849;50.096;14.458;2023-08-20T12:18:00;10.23;;;8.57;;
82244;SDS011;71849;50.096;14.458;2023-08-20T12:20:37;9.25;;;7.40;;
82244;SDS011;71849;50.096;14.458;2023-08-20T12:23:04;10.45;;;6.82;;
82244;SDS011;71849;50.096;14.458;2023-08-20T12:25:32;11.93;;;7.45;;
82244;SDS011;71849;50.096;14.458;2023-08-20T12:27:59;10.10;;;7.22;;
82244;SDS011;71849;50.096;14.458;2023-08-20T12:30:25;10.40;;;7.47;;
82244;SDS011;71849;50.096;14.458;2023-08-20T12:32:51;10.25;;;7.60;;
82244;SDS011;71849;50.096;14.458;2023-08-20T12:35:24;11.70;;;7.50;;
82244;SDS011;71849;50.096;14.458;2023-08-20T12:37:49;10.95;;;6.90;;
82244;SDS011;71849;50.096;14.458;2023-08-20T12:40:15;9.80;;;7.43;;
82244;SDS011;71849;50.096;14.458;2023-08-20T12:42:40;9.18;;;6.95;;
82244;SDS011;71849;50.096;14.458;2023-08-20T12:45:06;9.15;;;6.93;;
82244;SDS011;71849;50.096;14.458;2023-08-20T12:47:32;11.27;;;6.93;;
82244;SDS011;71849;50.096;14.458;2023-08-20T12:49:59;9.45;;;6.53;;
82244;SDS011;71849;50.096;14.458;2023-08-20T12:52:24;9.48;;;7.18;;
82244;SDS011;71849;50.096;14.458;2023-08-20T12:54:50;9.82;;;7.22;;
82244;SDS011;71849;50.096;14.458;2023-08-20T12:57:15;10.15;;;6.95;;
82244;SDS011;71849;50.096;14.458;2023-08-20T12:59:43;9.95;;;7.03;;
82244;SDS011;71849;50.096;14.458;2023-08-20T13:02:10;9.80;;;6.50;;
82244;SDS011;71849;50.096;14.458;2023-08-20T13:04:38;9.82;;;6.45;;
82244;SDS011;71849;50.096;14.458;2023-08-20T13:07:04;8.98;;;5.82;;
82244;SDS011;71849;50.096;14.458;2023-08-20T13:09:30;10.23;;;5.88;;
82244;SDS011;71849;50.096;14.458;2023-08-20T13:11:56;11.90;;;6.13;;
82244;SDS011;71849;50.096;14.458;2023-08-20T13:14:23;8.73;;;5.75;;
82244;SDS011;71849;50.096;14.458;2023-08-20T13:16:51;8.70;;;5.78;;
82244;SDS011;71849;50.096;14.458;2023-08-20T13:19:20;9.55;;;6.30;;
82244;SDS011;71849;50.096;14.458;2023-08-20T13:21:45;10.30;;;6.10;;
82244;SDS011;71849;50.096;14.458;2023-08-20T13:24:11;9.38;;;5.70;;
82244;SDS011;71849;50.096;14.458;2023-08-20T13:26:36;8.93;;;5.75;;
82244;SDS011;71849;50.096;14.458;2023-08-20T13:29:02;9.75;;;6.00;;
82244;SDS011;71849;50.096;14.458;2023-08-20T13:31:28;8.95;;;6.25;;
82244;SDS011;71849;50.096;14.458;2023-08-20T13:33:56;9.05;;;6.03;;
82244;SDS011;71849;50.096;14.458;2023-08-20T13:36:24;7.93;;;5.93;;
82244;SDS011;71849;50.096;14.458;2023-08-20T13:39:04;9.23;;;5.97;;
82244;SDS011;71849;50.096;14.458;2023-08-20T13:41:30;8.88;;;5.80;;
82244;SDS011;71849;50.096;14.458;2023-08-20T13:43:56;9.25;;;5.65;;
82244;SDS011;71849;50.096;14.458;2023-08-20T13:46:27;9.18;;;5.85;;
82244;SDS011;71849;50.096;14.458;2023-08-20T13:48:54;9.05;;;5.90;;
82244;SDS011;71849;50.096;14.458;2023-08-20T13:51:23;8.82;;;6.10;;
82244;SDS011;71849;50.096;14.458;2023-08-20T13:53:48;9.90;;;5.70;;
82244;SDS011;71849;50.096;14.458;2023-08-20T13:56:14;8.85;;;6.65;;
82244;SDS011;71849;50.096;14.458;2023-08-20T13:58:42;10.75;;;5.75;;
82244;SDS011;71849;50.096;14.458;2023-08-20T14:01:08;10.68;;;6.93;;
82244;SDS011;71849;50.096;14.458;2023-08-20T14:03:33;9.63;;;6.43;;
82244;SDS011;71849;50.096;14.458;2023-08-20T14:05:59;10.45;;;6.15;;
82244;SDS011;71849;50.096;14.458;2023-08-20T14:08:33;8.27;;;5.93;;
82244;SDS011;71849;50.096;14.458;2023-08-20T14:11:12;10.80;;;6.40;;
82244;SDS011;71849;50.096;14.458;2023-08-20T14:13:41;9.73;;;6.32;;
82244;SDS011;71849;50.096;14.458;2023-08-20T14:16:07;9.15;;;6.07;;
82244;SDS011;71849;50.096;14.458;2023-08-20T14:18:33;10.45;;;6.15;;
82244;SDS011;71849;50.096;14.458;2023-08-20T14:20:58;8.52;;;6.05;;
82244;SDS011;71849;50.096;14.458;2023-08-20T14:23:24;9.60;;;5.75;;
82244;SDS011;71849;50.096;14.458;2023-08-20T14:25:52;8.98;;;6.03;;
82244;SDS011;71849;50.096;14.458;2023-08-20T14:28:23;11.00;;;6.53;;
82244;SDS011;71849;50.096;14.458;2023-08-20T14:30:51;10.05;;;5.72;;
82244;SDS011;71849;50.096;14.458;2023-08-20T14:33:18;10.02;;;5.82;;
82244;SDS011;71849;50.096;14.458;2023-08-20T14:35:44;11.15;;;5.93;;
82244;SDS011;71849;50.096;14.458;2023-08-20T14:38:10;8.18;;;5.70;;
82244;SDS011;71849;50.096;14.458;2023-08-20T14:40:36;10.82;;;6.10;;
82244;SDS011;71849;50.096;14.458;2023-08-20T14:43:05;10.68;;;5.85;;
82244;SDS011;71849;50.096;14.458;2023-08-20T14:45:33;10.48;;;5.95;;
82244;SDS011;71849;50.096;14.458;2023-08-20T14:48:14;9.07;;;5.78;;